createdAt,value
2023-07-17T00:02:43.930Z,99.99
2023-07-17T00:06:45.857Z,99.69
2023-07-17T00:10:47.533Z,99.86
2023-07-17T00:14:49.403Z,99.70
2023-07-17T00:18:51.366Z,99.81
2023-07-17T00:22:53.380Z,99.78
2023-07-17T00:26:55.249Z,99.81
2023-07-17T00:30:57.116Z,99.93
2023-07-17T00:34:58.912Z,99.98
2023-07-17T00:39:00.643Z,99.81
2023-07-17T00:43:02.526Z,99.92
2023-07-17T00:47:05.869Z,99.90
2023-07-17T00:51:07.882Z,99.54
2023-07-17T00:55:09.967Z,99.60
2023-07-17T00:59:13.276Z,99.29
2023-07-17T01:03:15.252Z,97.93
2023-07-17T01:07:17.413Z,98.16
2023-07-17T01:11:19.592Z,98.13
2023-07-17T01:15:21.371Z,98.51
2023-07-17T01:19:23.242Z,97.90
2023-07-17T01:23:25.344Z,98.24
2023-07-17T01:27:27.065Z,98.24
2023-07-17T01:31:28.828Z,97.57
2023-07-17T01:35:30.598Z,97.23
2023-07-17T01:39:32.568Z,98.52
2023-07-17T01:43:34.563Z,98.51
2023-07-17T01:47:36.351Z,97.70
2023-07-17T01:51:38.226Z,98.02
2023-07-17T01:55:39.953Z,98.33
2023-07-17T01:59:41.778Z,99.01
2023-07-17T02:03:43.516Z,99.96
2023-07-17T02:07:45.300Z,99.68
2023-07-17T02:11:47.003Z,99.05
2023-07-17T02:15:48.642Z,99.83
2023-07-17T02:19:50.211Z,99.89
2023-07-17T02:23:52.217Z,100.00
2023-07-17T02:27:54.318Z,99.87
2023-07-17T02:31:56.143Z,99.74
2023-07-17T02:35:57.762Z,99.23
2023-07-17T02:39:59.499Z,100.00
2023-07-17T02:44:01.387Z,99.60
2023-07-17T02:48:04.532Z,98.30
2023-07-17T02:52:07.783Z,97.54
2023-07-17T02:56:09.443Z,96.53
2023-07-17T03:00:13.161Z,95.24
2023-07-17T03:04:15.313Z,95.60
2023-07-17T03:08:17.089Z,95.83
2023-07-17T03:12:18.809Z,95.38
2023-07-17T03:16:21.251Z,95.25
2023-07-17T03:20:23.131Z,94.54
2023-07-17T03:24:24.921Z,95.41
2023-07-17T03:28:26.810Z,95.72
2023-07-17T03:32:35.602Z,96.22
2023-07-17T03:36:37.526Z,95.76
2023-07-17T03:40:39.467Z,95.44
2023-07-17T03:44:41.171Z,96.12
2023-07-17T03:48:42.893Z,96.52
2023-07-17T03:52:44.845Z,97.81
2023-07-17T03:56:46.962Z,97.79
2023-07-17T04:00:48.994Z,98.26
2023-07-17T04:04:51.263Z,98.67
2023-07-17T04:08:53.013Z,99.21
2023-07-17T04:12:55.019Z,99.77
2023-07-17T04:16:56.993Z,99.41
2023-07-17T04:20:58.977Z,98.45
2023-07-17T04:25:02.682Z,97.79
2023-07-17T04:29:04.571Z,98.56
2023-07-17T04:33:06.611Z,95.71
2023-07-17T04:37:08.644Z,88.66
2023-07-17T04:41:10.801Z,85.93
2023-07-17T04:45:13.382Z,80.21
2023-07-17T04:49:15.156Z,77.77
2023-07-17T04:53:17.313Z,74.95
2023-07-17T04:57:19.369Z,73.71
2023-07-17T05:01:21.872Z,71.63
2023-07-17T05:05:24.472Z,68.09
2023-07-17T05:09:26.848Z,65.62
2023-07-17T05:13:29.782Z,62.75
2023-07-17T05:17:32.214Z,61.71
2023-07-17T05:21:35.065Z,61.76
2023-07-17T05:25:37.702Z,60.86
2023-07-17T05:29:40.174Z,59.78
2023-07-17T05:33:42.642Z,59.36
2023-07-17T05:37:45.340Z,58.11
2023-07-17T05:41:47.909Z,57.93
2023-07-17T05:45:50.376Z,56.75
2023-07-17T05:49:52.627Z,56.17
2023-07-17T05:53:55.373Z,55.60
2023-07-17T05:57:57.785Z,53.37
2023-07-17T06:02:00.392Z,52.53
2023-07-17T06:06:04.343Z,51.93
2023-07-17T06:10:08.418Z,50.81
2023-07-17T06:14:10.886Z,49.57
2023-07-17T06:18:13.402Z,48.75
2023-07-17T06:22:16.559Z,49.11
2023-07-17T06:26:19.178Z,46.35
2023-07-17T06:30:21.967Z,48.32
2023-07-17T06:34:24.435Z,49.23
2023-07-17T06:38:28.052Z,47.51
2023-07-17T06:42:31.881Z,47.05
2023-07-17T06:46:34.664Z,45.35
2023-07-17T06:50:37.427Z,46.14
2023-07-17T06:54:57.001Z,47.92
2023-07-17T06:59:02.489Z,48.73
2023-07-17T07:03:05.237Z,47.56
2023-07-17T07:07:07.848Z,47.00
2023-07-17T07:11:11.002Z,46.55
2023-07-17T07:15:13.540Z,47.61
2023-07-17T07:19:16.275Z,47.75
2023-07-17T07:23:20.030Z,50.35
2023-07-17T07:27:22.410Z,52.98
2023-07-17T07:31:24.953Z,54.51
2023-07-17T07:35:27.623Z,54.18
2023-07-17T07:39:30.248Z,55.46
2023-07-17T07:43:32.489Z,56.83
2023-07-17T07:47:34.812Z,58.03
2023-07-17T07:51:37.374Z,56.60
2023-07-17T07:55:41.031Z,58.04
2023-07-17T07:59:52.552Z,59.65
2023-07-17T08:03:55.134Z,58.46
2023-07-17T08:07:57.418Z,59.77
2023-07-17T08:11:59.893Z,59.49
2023-07-17T08:16:02.163Z,59.68
2023-07-17T08:20:05.715Z,59.13
2023-07-17T08:24:08.116Z,60.35
2023-07-17T08:28:10.677Z,58.94
2023-07-17T08:32:12.969Z,56.73
2023-07-17T08:36:15.247Z,54.90
2023-07-17T08:40:17.749Z,54.89
2023-07-17T08:44:21.221Z,54.96
2023-07-17T08:48:24.779Z,55.55
2023-07-17T08:52:29.216Z,54.65
2023-07-17T08:56:32.396Z,55.02
2023-07-17T09:00:35.029Z,55.18
2023-07-17T09:04:37.566Z,54.68
2023-07-17T09:08:40.239Z,52.53
2023-07-17T09:12:43.955Z,49.83
2023-07-17T09:16:47.691Z,49.12
2023-07-17T09:21:05.378Z,48.38
2023-07-17T09:25:09.072Z,47.66
2023-07-17T09:29:14.819Z,47.35
2023-07-17T09:33:25.607Z,47.05
2023-07-17T09:37:32.322Z,46.80
2023-07-17T09:41:35.590Z,46.16
2023-07-17T09:45:38.366Z,46.75
2023-07-17T09:49:41.695Z,46.85
2023-07-17T09:53:46.304Z,46.19
2023-07-17T09:57:53.675Z,45.62
2023-07-17T10:01:58.982Z,45.44
2023-07-17T10:06:02.761Z,45.36
2023-07-17T10:10:07.866Z,44.49
2023-07-17T10:14:12.947Z,44.76
2023-07-17T10:18:15.724Z,45.35
2023-07-17T10:22:18.719Z,45.86
2023-07-17T10:26:22.440Z,45.40
2023-07-17T10:30:26.086Z,44.93
2023-07-17T10:34:47.757Z,45.89
2023-07-17T10:38:54.005Z,46.56
2023-07-17T10:43:11.729Z,46.62
2023-07-17T10:47:14.052Z,46.09
2023-07-17T10:51:16.496Z,47.41
2023-07-17T10:55:19.390Z,45.69
2023-07-17T10:59:23.795Z,45.59
2023-07-17T11:03:27.438Z,45.30
2023-07-17T11:07:36.955Z,45.26
2023-07-17T11:11:39.885Z,45.64
2023-07-17T11:15:44.262Z,45.87
2023-07-17T11:19:47.086Z,45.28
2023-07-17T11:23:54.589Z,45.62
2023-07-17T11:28:00.061Z,46.50
2023-07-17T11:32:02.717Z,46.36
2023-07-17T11:36:16.659Z,45.70
2023-07-17T11:40:19.201Z,45.98
2023-07-17T11:44:27.319Z,45.03
2023-07-17T11:48:33.684Z,44.85
2023-07-17T11:52:35.740Z,44.74
2023-07-17T11:56:43.422Z,44.51
2023-07-17T12:00:50.763Z,44.09
2023-07-17T12:04:53.183Z,44.20
2023-07-17T12:08:55.644Z,44.00
2023-07-17T12:12:58.374Z,43.19
2023-07-17T12:17:01.142Z,41.91
2023-07-17T12:21:03.652Z,42.29
2023-07-17T12:25:06.512Z,42.38
2023-07-17T12:29:08.858Z,41.59
2023-07-17T12:33:11.065Z,41.22
2023-07-17T12:37:13.383Z,41.05
2023-07-17T12:41:16.129Z,42.95
2023-07-17T12:45:18.780Z,41.97
2023-07-17T12:49:21.238Z,42.15
2023-07-17T12:53:23.515Z,42.88
2023-07-17T12:57:28.727Z,42.75
2023-07-17T13:01:32.078Z,42.73
2023-07-17T13:05:34.877Z,43.32
2023-07-17T13:09:37.110Z,42.55
2023-07-17T13:13:39.434Z,40.89
2023-07-17T13:17:45.893Z,41.16
2023-07-17T13:21:49.099Z,41.56
2023-07-17T13:25:51.637Z,41.53
2023-07-17T13:29:55.294Z,41.45
2023-07-17T13:33:57.297Z,42.74
2023-07-17T13:37:59.461Z,41.68
2023-07-17T13:42:01.765Z,41.06
2023-07-17T13:46:03.870Z,40.97
2023-07-17T13:50:07.043Z,41.84
2023-07-17T13:54:10.416Z,41.60
2023-07-17T13:58:16.218Z,41.14
2023-07-17T14:02:18.708Z,40.65
2023-07-17T14:06:21.428Z,40.05
2023-07-17T14:10:24.984Z,39.73
2023-07-17T14:14:29.815Z,39.33
2023-07-17T14:18:34.191Z,39.41
2023-07-17T14:22:40.135Z,39.37
2023-07-17T14:26:42.457Z,39.27
2023-07-17T14:30:45.145Z,38.75
2023-07-17T14:34:47.377Z,38.20
2023-07-17T14:38:49.616Z,38.32
2023-07-17T14:42:53.039Z,38.24
2023-07-17T14:46:55.561Z,37.71
2023-07-17T14:50:58.745Z,38.27
2023-07-17T14:55:00.814Z,38.29
2023-07-17T14:59:03.160Z,38.09
2023-07-17T15:03:05.511Z,37.99
2023-07-17T15:07:09.113Z,37.76
2023-07-17T15:11:12.487Z,37.94
2023-07-17T15:15:14.915Z,37.65
2023-07-17T15:19:17.510Z,37.51
2023-07-17T15:23:19.688Z,37.37
2023-07-17T15:27:21.720Z,37.56
2023-07-17T15:31:23.733Z,37.52
2023-07-17T15:35:26.044Z,37.66
2023-07-17T15:39:28.184Z,37.63
2023-07-17T15:43:30.506Z,37.54
2023-07-17T15:47:32.733Z,37.79
2023-07-17T15:51:35.180Z,38.07
2023-07-17T15:55:38.002Z,38.45
2023-07-17T15:59:40.114Z,37.94
2023-07-17T16:03:42.425Z,38.17
2023-07-17T16:07:44.622Z,38.11
2023-07-17T16:11:46.743Z,38.08
2023-07-17T16:15:49.305Z,38.54
2023-07-17T16:19:51.361Z,38.73
2023-07-17T16:23:53.811Z,39.04
2023-07-17T16:27:56.980Z,39.41
2023-07-17T16:31:59.504Z,38.95
2023-07-17T16:36:01.690Z,38.91
2023-07-17T16:40:06.864Z,39.12
2023-07-17T16:44:09.284Z,39.98
2023-07-17T16:48:14.591Z,39.51
2023-07-17T16:52:16.929Z,38.84
2023-07-17T16:56:19.844Z,38.47
2023-07-17T17:00:24.298Z,38.45
2023-07-17T17:04:26.509Z,39.42
2023-07-17T17:08:28.710Z,39.89
2023-07-17T17:12:31.067Z,39.56
2023-07-17T17:16:33.395Z,40.30
2023-07-17T17:20:35.476Z,40.68
2023-07-17T17:24:37.722Z,41.60
2023-07-17T17:28:39.935Z,41.95
2023-07-17T17:32:42.928Z,41.10
2023-07-17T17:36:45.021Z,41.08
2023-07-17T17:40:47.852Z,41.71
2023-07-17T17:44:49.856Z,42.16
2023-07-17T17:48:52.294Z,42.70
2023-07-17T17:52:54.628Z,43.36
2023-07-17T17:56:58.703Z,43.88
2023-07-17T18:01:01.241Z,44.60
2023-07-17T18:05:03.632Z,46.38
2023-07-17T18:09:05.802Z,46.88
2023-07-17T18:13:07.950Z,46.61
2023-07-17T18:17:10.760Z,47.56
2023-07-17T18:21:13.006Z,48.74
2023-07-17T18:25:14.942Z,50.38
2023-07-17T18:29:16.982Z,50.66
2023-07-17T18:33:19.084Z,51.32
2023-07-17T18:37:21.115Z,51.68
2023-07-17T18:41:23.117Z,53.19
2023-07-17T18:45:25.989Z,52.11
2023-07-17T18:49:28.275Z,53.90
2023-07-17T18:53:30.836Z,53.78
2023-07-17T18:57:32.951Z,54.12
2023-07-17T19:01:35.363Z,56.24
2023-07-17T19:05:37.738Z,56.35
2023-07-17T19:09:39.755Z,57.62
2023-07-17T19:13:41.741Z,56.97
2023-07-17T19:17:44.767Z,58.13
2023-07-17T19:21:46.924Z,58.77
2023-07-17T19:25:49.046Z,58.53
2023-07-17T19:29:51.381Z,58.24
2023-07-17T19:33:54.629Z,60.15
2023-07-17T19:37:56.584Z,60.11
2023-07-17T19:41:58.865Z,61.60
2023-07-17T19:46:00.791Z,62.93
2023-07-17T19:50:02.654Z,63.78
2023-07-17T19:54:04.772Z,64.51
2023-07-17T19:58:08.115Z,64.51
2023-07-17T20:02:10.608Z,64.34
2023-07-17T20:06:14.024Z,64.56
2023-07-17T20:10:16.832Z,65.12
2023-07-17T20:14:18.838Z,65.10
2023-07-17T20:18:21.192Z,65.44
2023-07-17T20:22:23.114Z,66.29
2023-07-17T20:26:25.258Z,67.02
2023-07-17T20:30:27.484Z,66.86
2023-07-17T20:34:29.538Z,67.02
2023-07-17T20:38:31.563Z,68.29
2023-07-17T20:42:48.938Z,68.45
2023-07-17T20:46:51.328Z,69.49
2023-07-17T20:51:12.355Z,70.03
2023-07-17T20:55:19.762Z,69.55
2023-07-17T20:59:21.751Z,69.84
2023-07-17T21:03:23.738Z,69.86
2023-07-17T21:07:25.919Z,70.69
2023-07-17T21:11:29.027Z,70.83
2023-07-17T21:15:31.103Z,71.28
2023-07-17T21:19:32.973Z,71.32
2023-07-17T21:23:34.922Z,70.88
2023-07-17T21:27:36.672Z,69.66
2023-07-17T21:31:38.568Z,69.31
2023-07-17T21:35:40.788Z,69.06
2023-07-17T21:39:42.692Z,69.04
2023-07-17T21:43:44.374Z,69.42
2023-07-17T21:47:46.551Z,69.74
2023-07-17T21:51:48.302Z,69.65
2023-07-17T21:55:50.089Z,70.01
2023-07-17T21:59:53.642Z,70.05
2023-07-17T22:03:56.722Z,69.92
2023-07-17T22:07:58.512Z,68.90
2023-07-17T22:12:00.297Z,68.45
2023-07-17T22:16:03.437Z,67.73
2023-07-17T22:20:07.369Z,65.87
2023-07-17T22:24:09.564Z,66.31
2023-07-17T22:28:11.381Z,67.08
2023-07-17T22:32:14.489Z,64.99
2023-07-17T22:36:16.170Z,62.55
2023-07-17T22:40:18.156Z,61.39
2023-07-17T22:44:19.967Z,60.74
2023-07-17T22:48:21.826Z,59.54
2023-07-17T22:52:23.921Z,59.09
2023-07-17T22:56:26.033Z,59.34
2023-07-17T23:00:28.010Z,59.45
2023-07-17T23:04:30.763Z,59.88
2023-07-17T23:08:33.560Z,60.78
2023-07-17T23:12:39.361Z,61.49
2023-07-17T23:16:41.426Z,61.98
2023-07-17T23:20:43.387Z,62.75
2023-07-17T23:24:45.604Z,63.22
2023-07-17T23:28:48.516Z,64.14
2023-07-17T23:32:50.514Z,65.05
2023-07-17T23:36:52.366Z,65.91
2023-07-17T23:40:54.182Z,66.52
2023-07-17T23:44:56.851Z,66.97
2023-07-17T23:49:01.836Z,67.91
2023-07-17T23:53:03.915Z,68.94
2023-07-17T23:57:07.421Z,70.15
